Warning: Javascript must be enabled to use all the features on this page!


Page Loading - Please Wait...

Click to hideNews Bulletins

Peak Streamflow for the Nation

USGS 07106000 FOUNTAIN CREEK NEAR FOUNTAIN, CO.

El Paso County, Colorado
Hydrologic Unit Code 11020003
Latitude  38°36'06", Longitude 104°40'11" NAD27
Drainage area 672  square miles
Gage datum 5,355 feet above NGVD29
Output formats
Table
Graph
Tab-separated file
peakfq (watstore) format
Reselect output format
Water
Year
Date Gage
Height
(feet)
Stream-
flow
(cfs)
1939 1939-08-02 3.65 1,300
1940 1940-05-28 9.196 22,100
1941 1941-05-22 6.62 9,940
1942 1942-07-19 5.44 4,430
1943 1943-08-05 5.25 3,400
1944 1944-07-15 5.22 3,120
1945 1945-08-05 7.38 13,900
1946 1946-08-26 6.65 9,550
1947 1947-07-07 7.30 7,560
1948 1948-05-31 7.82 9,190
1949 1949-06-04 6.84 5,160
1950 1950-09-10 6.25 3,380
1951 1951-08-23 6.66 4,580
1952 1952-08-21 6.88 5,240
1953 1953-07-30 5.29 1,460
1954 1954-06-30 7.53 6,800
1955 1955-05-18 6.356 3,4807
1985 1985-07-20 10.386 7,020
1986 1986-08-21 7.75 3,400
1987 1987-06-08 9.32 4,240
1988 1988-08-09 8.416 4,550
1989 1989-07-14 7.21 2,740
1990 1990-05-29 8.516 5,200
1991 1991-06-06 8.40 4,440
1992 1992-06-26 7.34 2,850
1993 1993-06-17 9.60 5,860
1994 1994-09-03 10.34 6,920
1995 1995-05-17 10.25 9,120
1996 1996-07-10 8.10 4,130
1997 1997-06-14 9.91 11,500
1998 1998-07-30 9.11 4,980
1999 1999-04-30 12.06 20,100
2000 2000-07-17 7.62 5,220
2001 2001-06-07 7.65 6,460
2002 2002-07-05 6.81 3,830
2003 2003-08-31 8.09 8,060
2004 2004-07-23 9.14 8,660
2005 2005-08-20 9.55 9,970
2006 2006-08-04 8.04 6,010
2007 2007-04-17 7.46 5,020
2008 2008-09-12 8.61 8,220
2009 2009-07-26 6.272 3,350
2010 2010-07-20 6.72 3,440
2011 2011-09-15 8.94 10,500
2012 2012-06-07 7.60 8,280
2013 2013-09-13 10.06 15,300
2014 2014-07-17 8.035 5,8802
2015 2015-06-16 11.83 21,000
2016 2016-08-29 9.01 8,210
2017 2017-07-27 11.09 5,910
2018 2018-07-24 10.80 6,1002
2019 2019-07-20 10.66 5,6802
2020 2020-07-15 9.95 3,9602
2021 2021-07-31 11.34 4,150
2022 2022-07-27 10.58 3,350
?
  Peak Gage-Height Qualification Codes.
?
  Peak Streamflow Qualification Codes.